createdAt,value
2023-03-08T00:01:22.313Z,5.70
2023-03-08T00:03:53.465Z,5.70
2023-03-08T00:06:20.671Z,5.70
2023-03-08T00:08:48.484Z,5.60
2023-03-08T00:11:15.798Z,5.60
2023-03-08T00:13:42.435Z,5.50
2023-03-08T00:16:11.897Z,5.60
2023-03-08T00:18:38.758Z,5.60
2023-03-08T00:21:08.711Z,5.60
2023-03-08T00:23:35.593Z,5.60
2023-03-08T00:26:02.629Z,5.60
2023-03-08T00:28:30.080Z,5.60
2023-03-08T00:31:05.128Z,5.60
2023-03-08T00:33:33.112Z,5.60
2023-03-08T00:36:14.958Z,5.50
2023-03-08T00:38:41.658Z,5.50
2023-03-08T00:41:08.451Z,5.50
2023-03-08T00:43:35.408Z,5.40
2023-03-08T00:46:02.079Z,5.40
2023-03-08T00:48:28.754Z,5.40
2023-03-08T00:50:55.538Z,5.40
2023-03-08T00:53:22.253Z,5.40
2023-03-08T00:55:51.405Z,5.40
2023-03-08T00:58:18.723Z,5.40
2023-03-08T01:00:45.799Z,5.40
2023-03-08T01:03:12.579Z,5.40
2023-03-08T01:05:40.738Z,5.40
2023-03-08T01:08:07.425Z,5.50
2023-03-08T01:10:34.877Z,5.50
2023-03-08T01:13:01.761Z,5.50
2023-03-08T01:15:28.502Z,5.50
2023-03-08T01:17:55.155Z,5.50
2023-03-08T01:20:21.832Z,5.50
2023-03-08T01:22:48.542Z,5.50
2023-03-08T01:25:16.299Z,5.50
2023-03-08T01:27:42.996Z,5.50
2023-03-08T01:30:10.418Z,5.50
2023-03-08T01:32:37.139Z,5.40
2023-03-08T01:35:05.392Z,5.40
2023-03-08T01:37:33.188Z,5.40
2023-03-08T01:40:00.629Z,5.40
2023-03-08T01:42:28.230Z,5.40
2023-03-08T01:45:04.497Z,5.40
2023-03-08T01:47:35.955Z,5.40
2023-03-08T01:50:10.653Z,5.40
2023-03-08T01:52:46.787Z,5.40
2023-03-08T01:55:14.956Z,5.50
2023-03-08T01:57:49.316Z,5.50
2023-03-08T02:00:19.706Z,5.50
2023-03-08T02:03:02.467Z,5.40
2023-03-08T02:05:30.812Z,5.30
2023-03-08T02:07:57.482Z,5.30
2023-03-08T02:10:24.328Z,5.20
2023-03-08T02:12:51.745Z,5.20
2023-03-08T02:15:20.233Z,5.10
2023-03-08T02:17:47.105Z,5.00
2023-03-08T02:20:34.149Z,4.80
2023-03-08T02:23:15.712Z,4.80
2023-03-08T02:26:04.591Z,4.80
2023-03-08T02:28:32.644Z,4.90
2023-03-08T02:30:59.384Z,4.90
2023-03-08T02:33:26.195Z,5.00
2023-03-08T02:35:53.341Z,5.00
2023-03-08T02:38:21.529Z,5.10
2023-03-08T02:40:51.364Z,5.10
2023-03-08T02:43:18.982Z,5.10
2023-03-08T02:45:46.223Z,5.10
2023-03-08T02:48:13.248Z,5.10
2023-03-08T02:50:39.868Z,5.20
2023-03-08T02:53:06.976Z,5.10
2023-03-08T02:55:37.123Z,5.10
2023-03-08T02:58:05.560Z,5.20
2023-03-08T03:00:33.638Z,5.10
2023-03-08T03:03:00.305Z,5.00
2023-03-08T03:05:26.936Z,5.00
2023-03-08T03:07:55.355Z,5.00
2023-03-08T03:10:22.051Z,5.00
2023-03-08T03:12:48.685Z,4.90
2023-03-08T03:15:15.292Z,4.90
2023-03-08T03:17:41.947Z,4.90
2023-03-08T03:20:10.004Z,5.00
2023-03-08T03:22:37.309Z,5.00
2023-03-08T03:25:04.967Z,5.00
2023-03-08T03:27:31.620Z,5.10
2023-03-08T03:29:58.232Z,5.10
2023-03-08T03:32:24.871Z,5.10
2023-03-08T03:34:52.348Z,5.10
2023-03-08T03:37:18.956Z,5.10
2023-03-08T03:39:45.591Z,5.10
2023-03-08T03:42:12.229Z,5.10
2023-03-08T03:44:38.965Z,5.10
2023-03-08T03:47:05.986Z,5.10
2023-03-08T03:49:32.728Z,5.00
2023-03-08T03:51:59.659Z,5.10
2023-03-08T03:54:26.843Z,5.00
2023-03-08T03:56:55.428Z,5.10
2023-03-08T03:59:22.075Z,5.10
2023-03-08T04:01:48.704Z,5.10
2023-03-08T04:04:15.373Z,5.00
2023-03-08T04:06:42.428Z,5.00
2023-03-08T04:09:14.145Z,5.00
2023-03-08T04:11:40.983Z,5.00
2023-03-08T04:14:07.882Z,5.10
2023-03-08T04:16:36.833Z,5.10
2023-03-08T04:19:06.837Z,5.10
2023-03-08T04:21:33.799Z,5.10
2023-03-08T04:24:01.013Z,5.10
2023-03-08T04:26:28.147Z,5.10
2023-03-08T04:28:54.930Z,5.20
2023-03-08T04:31:24.616Z,5.20
2023-03-08T04:33:52.100Z,5.20
2023-03-08T04:36:19.480Z,5.20
2023-03-08T04:38:47.257Z,5.20
2023-03-08T04:41:14.473Z,5.30
2023-03-08T04:43:46.213Z,5.30
2023-03-08T04:46:13.888Z,5.30
2023-03-08T04:48:41.114Z,5.30
2023-03-08T04:51:08.689Z,5.30
2023-03-08T04:53:36.246Z,5.20
2023-03-08T04:56:03.395Z,5.20
2023-03-08T04:58:30.850Z,5.20
2023-03-08T05:00:57.556Z,5.20
2023-03-08T05:03:24.216Z,5.20
2023-03-08T05:05:53.734Z,5.20
2023-03-08T05:08:21.455Z,5.20
2023-03-08T05:11:00.492Z,5.20
2023-03-08T05:13:29.819Z,5.20
2023-03-08T05:15:56.851Z,5.20
2023-03-08T05:18:23.600Z,5.10
2023-03-08T05:20:58.005Z,5.10
2023-03-08T05:23:28.491Z,5.20
2023-03-08T05:25:57.016Z,5.20
2023-03-08T05:28:25.363Z,5.30
2023-03-08T05:31:01.903Z,5.40
2023-03-08T05:33:28.765Z,5.30
2023-03-08T05:35:55.488Z,5.30
2023-03-08T05:38:22.992Z,5.30
2023-03-08T05:40:50.670Z,5.30
2023-03-08T05:43:18.575Z,5.30
2023-03-08T05:45:59.182Z,5.20
2023-03-08T05:48:26.241Z,5.20
2023-03-08T05:50:53.452Z,5.20
2023-03-08T05:53:21.188Z,5.20
2023-03-08T05:55:48.034Z,5.10
2023-03-08T05:58:15.300Z,5.10
2023-03-08T06:00:42.006Z,5.10
2023-03-08T06:03:08.691Z,5.10
2023-03-08T06:05:35.406Z,5.20
2023-03-08T06:08:02.148Z,5.10
2023-03-08T06:10:28.800Z,5.20
2023-03-08T06:12:55.407Z,5.20
2023-03-08T06:15:23.115Z,5.00
2023-03-08T06:17:53.675Z,5.00
2023-03-08T06:20:20.452Z,4.90
2023-03-08T06:22:47.126Z,4.90
2023-03-08T06:25:13.753Z,4.80
2023-03-08T06:27:40.349Z,4.70
2023-03-08T06:30:07.355Z,4.60
2023-03-08T06:32:35.585Z,4.40
2023-03-08T06:35:02.376Z,4.30
2023-03-08T06:37:33.115Z,4.30
2023-03-08T06:40:00.638Z,4.30
2023-03-08T06:42:40.293Z,4.40
2023-03-08T06:45:09.158Z,4.30
2023-03-08T06:47:35.777Z,4.40
2023-03-08T06:50:02.510Z,4.40
2023-03-08T06:52:34.839Z,4.40
2023-03-08T06:55:01.468Z,4.50
2023-03-08T06:57:28.082Z,4.50
2023-03-08T06:59:54.747Z,4.60
2023-03-08T07:02:21.407Z,4.70
2023-03-08T07:04:49.610Z,4.80
2023-03-08T07:07:16.475Z,4.80
2023-03-08T07:09:43.223Z,4.80
2023-03-08T07:12:09.906Z,4.80
2023-03-08T07:14:36.607Z,4.90
2023-03-08T07:17:03.244Z,4.90
2023-03-08T07:19:31.258Z,4.80
2023-03-08T07:21:57.887Z,5.00
2023-03-08T07:24:24.484Z,5.00
2023-03-08T07:26:51.119Z,5.00
2023-03-08T07:29:17.748Z,5.00
2023-03-08T07:31:44.424Z,5.00
2023-03-08T07:34:11.843Z,5.00
2023-03-08T07:36:40.046Z,4.80
2023-03-08T07:39:06.826Z,4.60
2023-03-08T07:41:34.683Z,4.40
2023-03-08T07:44:02.380Z,4.40
2023-03-08T07:46:29.355Z,4.30
2023-03-08T07:48:56.060Z,4.20
2023-03-08T07:51:23.084Z,4.10
2023-03-08T07:53:51.032Z,4.10
2023-03-08T07:56:17.786Z,4.10
2023-03-08T07:58:44.479Z,4.00
2023-03-08T08:01:12.431Z,3.90
2023-03-08T08:03:39.828Z,3.80
2023-03-08T08:06:07.597Z,3.70
2023-03-08T08:08:34.323Z,3.80
2023-03-08T08:11:01.242Z,3.80
2023-03-08T08:13:27.883Z,3.80
2023-03-08T08:15:59.784Z,3.90
2023-03-08T08:18:26.763Z,3.80
2023-03-08T08:21:03.881Z,3.80
2023-03-08T08:23:30.925Z,3.80
2023-03-08T08:25:57.805Z,3.70
2023-03-08T08:28:26.529Z,3.70
2023-03-08T08:31:05.424Z,3.70
2023-03-08T08:33:33.026Z,3.70
2023-03-08T08:36:00.368Z,3.70
2023-03-08T08:38:27.215Z,3.80
2023-03-08T08:40:53.931Z,3.80
2023-03-08T08:43:20.565Z,3.80
2023-03-08T08:45:53.257Z,3.70
2023-03-08T08:48:19.940Z,3.60
2023-03-08T08:50:46.591Z,3.60
2023-03-08T08:53:13.697Z,3.50
2023-03-08T08:55:41.920Z,3.50
2023-03-08T08:58:09.551Z,3.50
2023-03-08T09:00:36.454Z,3.40
2023-03-08T09:03:04.899Z,3.40
2023-03-08T09:05:32.650Z,3.40
2023-03-08T09:08:01.305Z,3.30
2023-03-08T09:10:29.720Z,3.30
2023-03-08T09:12:59.002Z,3.30
2023-03-08T09:15:26.567Z,3.40
2023-03-08T09:17:53.810Z,3.30
2023-03-08T09:20:22.948Z,3.30
2023-03-08T09:22:50.358Z,3.40
2023-03-08T09:25:19.489Z,3.30
2023-03-08T09:27:46.332Z,3.30
2023-03-08T09:30:15.119Z,3.40
2023-03-08T09:32:41.975Z,3.40
2023-03-08T09:35:09.543Z,3.40
2023-03-08T09:37:38.029Z,3.30
2023-03-08T09:40:09.472Z,3.30
2023-03-08T09:42:38.212Z,3.30
2023-03-08T09:45:21.576Z,3.40
2023-03-08T09:48:13.220Z,3.30
2023-03-08T09:50:48.799Z,3.60
2023-03-08T09:53:33.805Z,3.30
2023-03-08T09:56:11.812Z,3.30
2023-03-08T09:58:47.367Z,3.40
2023-03-08T10:01:24.957Z,3.50
2023-03-08T10:04:12.651Z,3.50
2023-03-08T10:06:54.608Z,3.60
2023-03-08T10:09:31.808Z,3.60
2023-03-08T10:12:29.358Z,3.60
2023-03-08T10:15:05.245Z,3.60
2023-03-08T10:17:45.005Z,3.50
2023-03-08T10:20:37.907Z,3.60
2023-03-08T10:23:20.648Z,3.60
2023-03-08T10:25:49.172Z,3.60
2023-03-08T10:28:21.300Z,3.60
2023-03-08T10:30:54.529Z,3.50
2023-03-08T10:33:26.746Z,3.50
2023-03-08T10:35:58.762Z,3.60
2023-03-08T10:38:31.398Z,3.60
2023-03-08T10:41:16.088Z,3.70
2023-03-08T10:43:52.026Z,3.80
2023-03-08T10:46:30.306Z,3.80
2023-03-08T10:49:08.006Z,3.90
2023-03-08T10:51:34.753Z,3.90
2023-03-08T10:54:04.575Z,3.90
2023-03-08T10:56:44.737Z,4.00
2023-03-08T10:59:21.309Z,4.00
2023-03-08T11:01:53.646Z,4.00
2023-03-08T11:04:23.544Z,4.00
2023-03-08T11:06:50.824Z,4.10
2023-03-08T11:09:26.595Z,4.10
2023-03-08T11:11:57.234Z,4.10
2023-03-08T11:14:25.300Z,4.10
2023-03-08T11:17:27.565Z,4.10
2023-03-08T11:20:24.831Z,4.20
2023-03-08T11:23:15.583Z,4.30
2023-03-08T11:25:45.507Z,4.30
2023-03-08T11:28:27.257Z,4.40
2023-03-08T11:31:13.241Z,4.50
2023-03-08T11:33:51.150Z,4.60
2023-03-08T11:36:47.723Z,4.60
2023-03-08T11:39:34.567Z,4.70
2023-03-08T11:42:22.332Z,4.90
2023-03-08T11:45:19.077Z,4.90
2023-03-08T11:47:45.912Z,4.80
2023-03-08T11:50:33.613Z,4.80
2023-03-08T11:53:18.356Z,4.90
2023-03-08T11:55:52.595Z,5.00
2023-03-08T11:58:20.362Z,5.00
2023-03-08T12:00:49.966Z,5.00
2023-03-08T12:03:32.811Z,5.10
2023-03-08T12:06:40.646Z,5.00
2023-03-08T12:09:23.003Z,5.00
2023-03-08T12:12:19.746Z,5.10
2023-03-08T12:14:57.646Z,5.10
2023-03-08T12:17:28.770Z,5.20
2023-03-08T12:19:55.489Z,5.20
2023-03-08T12:22:45.956Z,5.20
2023-03-08T12:25:24.714Z,5.30
2023-03-08T12:28:09.726Z,5.30
2023-03-08T12:31:27.293Z,5.30
2023-03-08T12:33:56.763Z,5.30
2023-03-08T12:36:37.133Z,5.30
2023-03-08T12:39:26.820Z,5.40
2023-03-08T12:42:16.587Z,5.50
2023-03-08T12:44:43.991Z,5.60
2023-03-08T12:47:13.615Z,5.40
2023-03-08T12:49:50.559Z,5.60
2023-03-08T12:52:20.283Z,5.60
2023-03-08T12:54:59.270Z,5.70
2023-03-08T12:57:31.037Z,5.80
2023-03-08T13:00:25.427Z,5.90
2023-03-08T13:03:24.521Z,6.00
2023-03-08T13:05:52.162Z,6.00
2023-03-08T13:08:47.131Z,6.10
2023-03-08T13:11:16.716Z,6.10
2023-03-08T13:13:50.721Z,6.10
2023-03-08T13:16:26.231Z,6.10
2023-03-08T13:19:21.690Z,6.20
2023-03-08T13:22:19.954Z,6.30
2023-03-08T13:25:17.484Z,6.30
2023-03-08T13:28:00.639Z,6.40
2023-03-08T13:31:06.224Z,6.50
2023-03-08T13:33:48.380Z,6.60
2023-03-08T13:36:15.018Z,6.60
2023-03-08T13:38:41.796Z,6.60
2023-03-08T13:41:08.456Z,6.60
2023-03-08T13:43:36.007Z,6.60
2023-03-08T13:46:10.609Z,6.60
2023-03-08T13:48:37.683Z,6.60
2023-03-08T13:51:04.582Z,6.60
2023-03-08T13:53:36.100Z,6.70
2023-03-08T13:56:04.970Z,6.80
2023-03-08T13:58:38.187Z,6.80
2023-03-08T14:01:15.081Z,6.90
2023-03-08T14:03:43.755Z,6.90
2023-03-08T14:06:38.025Z,7.00
2023-03-08T14:09:05.786Z,7.00
2023-03-08T14:11:35.988Z,6.90
2023-03-08T14:14:06.998Z,6.90
2023-03-08T14:16:37.040Z,6.90
2023-03-08T14:19:14.369Z,7.10
2023-03-08T14:21:50.119Z,7.10
2023-03-08T14:24:25.342Z,7.20
2023-03-08T14:27:18.424Z,7.30
2023-03-08T14:29:45.948Z,7.40
2023-03-08T14:32:13.130Z,7.40
2023-03-08T14:34:42.831Z,7.40
2023-03-08T14:37:23.370Z,7.40
2023-03-08T14:39:53.982Z,7.50
2023-03-08T14:42:43.190Z,7.60
2023-03-08T14:45:23.811Z,7.60
2023-03-08T14:47:59.192Z,7.60
2023-03-08T14:50:31.478Z,7.70
2023-03-08T14:53:00.678Z,7.80
2023-03-08T14:55:38.566Z,7.80
2023-03-08T14:58:12.938Z,7.90
2023-03-08T15:00:54.796Z,7.90
2023-03-08T15:03:21.468Z,8.00
2023-03-08T15:05:48.490Z,8.00
2023-03-08T15:08:17.448Z,8.00
2023-03-08T15:10:44.704Z,8.00
2023-03-08T15:13:17.777Z,8.10
2023-03-08T15:15:45.066Z,8.10
2023-03-08T15:18:12.004Z,8.20
2023-03-08T15:20:44.589Z,8.20
2023-03-08T15:23:17.874Z,8.20
2023-03-08T15:25:44.712Z,8.30
2023-03-08T15:28:15.385Z,8.30
2023-03-08T15:30:42.495Z,8.30
2023-03-08T15:33:09.801Z,8.20
2023-03-08T15:35:38.268Z,8.20
2023-03-08T15:38:05.007Z,8.20
2023-03-08T15:40:33.364Z,8.20
2023-03-08T15:43:00.970Z,8.10
2023-03-08T15:45:28.688Z,8.10
2023-03-08T15:47:59.607Z,8.10
2023-03-08T15:50:27.635Z,8.10
2023-03-08T15:52:55.561Z,8.10
2023-03-08T15:55:24.467Z,8.20
2023-03-08T15:57:51.210Z,8.30
2023-03-08T16:00:19.792Z,8.20
2023-03-08T16:02:47.347Z,8.30
2023-03-08T16:05:15.143Z,8.30
2023-03-08T16:07:42.865Z,8.30
2023-03-08T16:10:13.219Z,8.40
2023-03-08T16:12:40.958Z,8.30
2023-03-08T16:15:08.264Z,8.30
2023-03-08T16:17:35.046Z,8.30
2023-03-08T16:20:03.486Z,8.30
2023-03-08T16:22:30.132Z,8.40
2023-03-08T16:24:56.820Z,8.40
2023-03-08T16:27:23.478Z,8.40
2023-03-08T16:29:52.160Z,8.40
2023-03-08T16:32:19.590Z,8.50
2023-03-08T16:34:50.818Z,8.50
2023-03-08T16:37:21.103Z,8.50
2023-03-08T16:39:51.626Z,8.50
2023-03-08T16:42:19.292Z,8.50
2023-03-08T16:44:52.533Z,8.50
2023-03-08T16:47:20.614Z,8.50
2023-03-08T16:49:47.448Z,8.40
2023-03-08T16:52:15.961Z,8.40
2023-03-08T16:54:43.153Z,8.40
2023-03-08T16:57:19.146Z,8.40
2023-03-08T16:59:47.703Z,8.40
2023-03-08T17:02:17.144Z,8.40
2023-03-08T17:04:44.296Z,8.30
2023-03-08T17:07:11.476Z,8.30
2023-03-08T17:09:38.623Z,8.30
2023-03-08T17:12:06.156Z,8.30
2023-03-08T17:14:34.786Z,8.30
2023-03-08T17:17:01.877Z,8.20
2023-03-08T17:19:28.590Z,8.20
2023-03-08T17:21:55.718Z,8.10
2023-03-08T17:24:22.579Z,8.10
2023-03-08T17:26:52.681Z,8.10
2023-03-08T17:29:19.865Z,8.00
2023-03-08T17:31:46.829Z,8.00
2023-03-08T17:34:13.720Z,8.00
2023-03-08T17:36:40.643Z,8.00
2023-03-08T17:39:07.647Z,8.00
2023-03-08T17:41:34.401Z,8.00
2023-03-08T17:44:01.234Z,8.00
2023-03-08T17:46:28.228Z,8.00
2023-03-08T17:48:55.890Z,7.90
2023-03-08T17:51:25.352Z,7.70
2023-03-08T17:53:53.343Z,7.50
2023-03-08T17:56:24.928Z,7.40
2023-03-08T17:58:52.183Z,7.20
2023-03-08T18:01:24.602Z,7.10
2023-03-08T18:03:52.421Z,6.90
2023-03-08T18:06:33.566Z,6.90
2023-03-08T18:09:03.318Z,7.00
2023-03-08T18:11:30.056Z,7.00
2023-03-08T18:13:57.069Z,7.10
2023-03-08T18:16:24.594Z,7.10
2023-03-08T18:18:51.719Z,7.20
2023-03-08T18:21:19.684Z,7.20
2023-03-08T18:23:46.906Z,7.10
2023-03-08T18:26:15.618Z,6.90
2023-03-08T18:28:42.297Z,6.90
2023-03-08T18:31:11.824Z,6.90
2023-03-08T18:33:39.266Z,6.90
2023-03-08T18:36:06.328Z,7.00
2023-03-08T18:38:33.039Z,7.10
2023-03-08T18:40:59.705Z,7.10
2023-03-08T18:43:26.382Z,7.00
2023-03-08T18:45:54.951Z,7.10
2023-03-08T18:48:23.201Z,7.10
2023-03-08T18:50:49.973Z,7.10
2023-03-08T18:53:16.782Z,7.10
2023-03-08T18:55:54.317Z,7.10
2023-03-08T18:58:21.880Z,7.10
2023-03-08T19:00:48.801Z,7.10
2023-03-08T19:03:15.466Z,7.10
2023-03-08T19:05:42.313Z,7.10
2023-03-08T19:08:09.164Z,7.10
2023-03-08T19:10:35.870Z,7.10
2023-03-08T19:13:02.627Z,7.10
2023-03-08T19:15:29.457Z,7.20
2023-03-08T19:17:57.878Z,7.20
2023-03-08T19:20:26.489Z,7.30
2023-03-08T19:22:53.440Z,7.30
2023-03-08T19:25:20.223Z,7.30
2023-03-08T19:27:46.977Z,7.30
2023-03-08T19:30:13.857Z,7.30
2023-03-08T19:32:42.614Z,7.30
2023-03-08T19:35:09.831Z,7.50
2023-03-08T19:37:36.521Z,7.60
2023-03-08T19:40:04.748Z,7.60
2023-03-08T19:42:31.395Z,7.70
2023-03-08T19:44:58.079Z,7.70
2023-03-08T19:47:24.737Z,7.70
2023-03-08T19:49:51.830Z,7.80
2023-03-08T19:52:18.607Z,7.80
2023-03-08T19:54:46.173Z,7.80
2023-03-08T19:57:13.476Z,7.80
2023-03-08T19:59:40.204Z,7.90
2023-03-08T20:02:08.826Z,8.00
2023-03-08T20:04:36.548Z,8.00
2023-03-08T20:07:04.819Z,8.00
2023-03-08T20:09:31.560Z,8.00
2023-03-08T20:11:59.167Z,8.10
2023-03-08T20:14:27.217Z,8.10
2023-03-08T20:16:54.566Z,8.10
2023-03-08T20:19:21.398Z,8.20
2023-03-08T20:21:48.248Z,8.20
2023-03-08T20:24:18.118Z,8.20
2023-03-08T20:26:45.679Z,8.20
2023-03-08T20:29:12.438Z,8.30
2023-03-08T20:31:39.203Z,8.30
2023-03-08T20:34:05.990Z,8.40
2023-03-08T20:36:32.809Z,8.40
2023-03-08T20:38:59.645Z,8.50
2023-03-08T20:41:26.528Z,8.50
2023-03-08T20:43:57.406Z,8.60
2023-03-08T20:46:27.453Z,8.70
2023-03-08T20:48:54.186Z,8.70
2023-03-08T20:51:21.908Z,8.80
2023-03-08T20:53:50.895Z,8.90
2023-03-08T20:56:19.286Z,8.90
2023-03-08T20:58:47.022Z,9.00
2023-03-08T21:01:28.738Z,9.00
2023-03-08T21:03:55.454Z,9.10
2023-03-08T21:06:28.533Z,9.00
2023-03-08T21:08:55.633Z,9.00
2023-03-08T21:11:22.784Z,8.90
2023-03-08T21:13:50.987Z,8.90
2023-03-08T21:16:19.811Z,9.00
2023-03-08T21:18:55.054Z,9.00
2023-03-08T21:21:27.215Z,9.00
2023-03-08T21:23:58.550Z,9.00
2023-03-08T21:26:26.391Z,9.00
2023-03-08T21:28:55.401Z,9.00
2023-03-08T21:31:23.339Z,9.00
2023-03-08T21:33:50.412Z,9.00
2023-03-08T21:36:17.333Z,9.10
2023-03-08T21:38:44.042Z,9.10
2023-03-08T21:41:22.378Z,9.10
2023-03-08T21:43:49.113Z,9.20
2023-03-08T21:46:16.730Z,9.20
2023-03-08T21:48:43.754Z,9.20
2023-03-08T21:51:11.103Z,9.20
2023-03-08T21:53:38.284Z,9.30
2023-03-08T21:56:10.186Z,9.30
2023-03-08T21:58:37.750Z,9.30
2023-03-08T22:01:05.352Z,9.30
2023-03-08T22:03:33.335Z,9.30
2023-03-08T22:06:00.827Z,9.30
2023-03-08T22:08:27.740Z,9.20
2023-03-08T22:10:54.952Z,9.30
2023-03-08T22:13:22.017Z,9.30
2023-03-08T22:15:48.708Z,9.20
2023-03-08T22:18:15.361Z,10.20
2023-03-08T22:20:42.929Z,9.20
2023-03-08T22:23:09.782Z,9.20
2023-03-08T22:25:36.401Z,9.20
2023-03-08T22:28:03.094Z,9.20
2023-03-08T22:30:29.757Z,9.30
2023-03-08T22:32:56.380Z,9.30
2023-03-08T22:35:23.013Z,9.30
2023-03-08T22:37:50.221Z,9.30
2023-03-08T22:40:18.903Z,9.30
2023-03-08T22:42:46.620Z,9.30
2023-03-08T22:45:14.163Z,9.20
2023-03-08T22:47:41.218Z,9.20
2023-03-08T22:50:08.699Z,9.30
2023-03-08T22:52:35.398Z,9.30
2023-03-08T22:55:02.161Z,9.40
2023-03-08T22:57:28.824Z,9.40
2023-03-08T22:59:56.654Z,9.40
2023-03-08T23:02:23.809Z,9.40
2023-03-08T23:04:50.577Z,9.40
2023-03-08T23:07:17.336Z,9.40
2023-03-08T23:09:43.963Z,9.40
2023-03-08T23:12:10.583Z,9.50
2023-03-08T23:14:37.193Z,9.50
2023-03-08T23:17:03.825Z,9.50
2023-03-08T23:19:30.597Z,9.60
2023-03-08T23:21:57.770Z,9.60
2023-03-08T23:24:24.434Z,9.60
2023-03-08T23:26:51.142Z,9.30
2023-03-08T23:29:17.806Z,9.60
2023-03-08T23:31:45.860Z,9.60
2023-03-08T23:34:12.701Z,9.70
2023-03-08T23:36:39.507Z,9.70
2023-03-08T23:39:06.410Z,9.80
2023-03-08T23:41:33.190Z,9.80
2023-03-08T23:44:00.988Z,9.80
2023-03-08T23:46:28.965Z,9.90
2023-03-08T23:48:57.833Z,9.90
2023-03-08T23:51:27.511Z,9.90
2023-03-08T23:53:56.941Z,9.90
2023-03-08T23:56:30.482Z,9.90
2023-03-08T23:59:01.260Z,9.90
